Time;durP1;ratioP1;P1;durP2;ratioP2;P2;SDS_P1;SDS_P2;PMS_P1;PMS_P2;Temp;Humidity;BMP_temperature;BMP_pressure;BME280_temperature;BME280_humidity;BME280_pressure;Samples;Min_cycle;Max_cycle;Signal;HPM_P1;HPM_P2
2021/12/24 00:02:01;;;;;;;41.30;23.05;;;4.90;99.90;;;;;;4984557;28;20500;-79
2021/12/24 00:04:28;;;;;;;39.35;23.27;;;4.90;99.90;;;;;;5002053;28;20061;-79
2021/12/24 00:06:54;;;;;;;45.75;23.42;;;5.00;99.90;;;;;;5004076;28;20038;-79
2021/12/24 00:09:23;;;;;;;44.30;24.42;;;5.00;99.90;;;;;;5005682;28;20054;-79
2021/12/24 00:11:50;;;;;;;39.65;22.70;;;5.10;99.90;;;;;;5007991;28;20528;-79
2021/12/24 00:14:16;;;;;;;44.47;23.33;;;5.10;99.90;;;;;;4986267;28;20078;-79
2021/12/24 00:16:47;;;;;;;39.13;21.85;;;5.10;99.90;;;;;;4988102;28;20046;-79
2021/12/24 00:19:16;;;;;;;39.00;21.88;;;5.10;99.90;;;;;;5002354;28;20057;-79
2021/12/24 00:35:31;;;;;;;35.55;22.40;;;5.10;99.90;;;;;;4990177;28;20096;-79
2021/12/24 00:38:01;;;;;;;41.90;22.65;;;5.10;99.90;;;;;;5007838;28;20116;-79
2021/12/24 00:40:28;;;;;;;42.42;22.55;;;5.10;99.90;;;;;;5006416;28;20485;-79
2021/12/24 00:42:54;;;;;;;45.05;21.70;;;5.20;99.90;;;;;;5009806;28;20473;-79
2021/12/24 00:45:21;;;;;;;41.33;22.15;;;5.20;99.90;;;;;;4988448;28;20054;-79
2021/12/24 00:47:47;;;;;;;42.47;22.17;;;5.20;99.90;;;;;;5000336;28;20054;-79
2021/12/24 00:50:16;;;;;;;45.20;22.63;;;5.20;99.90;;;;;;4998972;28;20057;-79
2021/12/24 00:52:52;;;;;;;48.17;22.15;;;5.20;99.90;;;;;;4979145;28;20474;-80
2021/12/24 00:55:18;;;;;;;43.15;21.45;;;5.20;99.90;;;;;;4980978;28;20046;-79
2021/12/24 00:57:44;;;;;;;46.17;21.92;;;5.30;99.90;;;;;;4991270;28;20093;-79
2021/12/24 01:00:11;;;;;;;34.03;20.92;;;5.30;99.90;;;;;;4995036;28;20559;-79
2021/12/24 01:02:37;;;;;;;45.15;21.27;;;5.30;99.90;;;;;;4989522;28;20053;-79
2021/12/24 01:05:04;;;;;;;38.70;20.20;;;5.30;99.90;;;;;;4997707;28;20058;-79
2021/12/24 01:07:30;;;;;;;42.08;20.67;;;5.30;99.90;;;;;;4996467;28;20062;-79
2021/12/24 01:09:57;;;;;;;35.90;19.70;;;5.30;99.90;;;;;;4998894;28;20061;-80
2021/12/24 01:12:24;;;;;;;29.23;17.00;;;5.30;99.90;;;;;;4995942;28;20050;-80
2021/12/24 01:14:51;;;;;;;29.55;16.80;;;5.30;99.90;;;;;;4994521;28;20052;-80
2021/12/24 01:17:29;;;;;;;30.58;17.30;;;5.40;99.90;;;;;;5012991;28;20042;-80
2021/12/24 01:20:02;;;;;;;27.45;15.43;;;5.40;99.90;;;;;;4998749;28;20132;-81
2021/12/24 01:25:28;;;;;;;24.98;14.82;;;5.50;99.90;;;;;;4944717;28;20417;-80
2021/12/24 01:28:12;;;;;;;28.95;14.63;;;5.50;99.90;;;;;;4995360;28;20046;-80
2021/12/24 01:39:03;;;;;;;27.05;13.98;;;5.50;99.90;;;;;;4990926;28;20046;-80
2021/12/24 01:44:14;;;;;;;23.58;14.52;;;5.60;99.90;;;;;;4987534;28;20057;-80
2021/12/24 01:46:40;;;;;;;28.33;13.82;;;5.70;99.90;;;;;;4985220;28;20101;-80
2021/12/24 01:49:07;;;;;;;22.73;13.70;;;5.70;99.90;;;;;;4986811;28;20061;-80
2021/12/24 01:51:33;;;;;;;22.05;13.95;;;5.70;99.90;;;;;;4992231;28;20050;-80
2021/12/24 01:54:00;;;;;;;24.13;12.40;;;5.70;99.90;;;;;;4990394;28;20050;-81
2021/12/24 01:56:26;;;;;;;27.63;13.77;;;5.70;99.90;;;;;;4990648;28;20062;-80
2021/12/24 01:58:53;;;;;;;23.05;12.85;;;5.80;99.90;;;;;;4985852;28;20114;-80
2021/12/24 02:01:25;;;;;;;21.75;11.73;;;5.80;99.90;;;;;;4986295;28;20042;-81
2021/12/24 02:03:51;;;;;;;21.00;11.23;;;5.80;99.90;;;;;;4989390;28;20066;-80
2021/12/24 02:06:18;;;;;;;17.80;11.73;;;5.80;99.90;;;;;;4990496;28;20058;-80
2021/12/24 02:08:44;;;;;;;19.80;11.02;;;5.90;99.90;;;;;;4986731;28;20053;-80
2021/12/24 02:11:11;;;;;;;24.25;12.65;;;5.90;99.90;;;;;;4990010;28;20069;-81
2021/12/24 02:13:37;;;;;;;22.17;12.00;;;6.00;99.90;;;;;;4992156;28;20050;-80
2021/12/24 02:16:14;;;;;;;18.45;12.15;;;6.00;99.90;;;;;;4989147;28;20047;-81
2021/12/24 02:29:37;;;;;;;13.32;8.43;;;6.10;99.90;;;;;;4982007;28;20070;-81
2021/12/24 02:32:04;;;;;;;13.73;7.85;;;6.10;99.90;;;;;;5002850;28;20051;-81
2021/12/24 02:34:30;;;;;;;13.05;8.68;;;6.20;99.90;;;;;;4988410;28;20061;-79
2021/12/24 02:36:57;;;;;;;17.60;9.48;;;6.10;99.90;;;;;;4986552;28;20057;-81
2021/12/24 02:39:23;;;;;;;13.65;8.90;;;6.20;99.90;;;;;;4990106;28;20068;-80
2021/12/24 02:41:50;;;;;;;11.45;7.95;;;6.20;99.90;;;;;;4990256;28;20058;-81
2021/12/24 02:44:18;;;;;;;10.35;7.88;;;6.20;99.90;;;;;;4993597;28;20062;-80
2021/12/24 02:47:07;;;;;;;10.63;6.90;;;6.20;99.90;;;;;;4985183;28;20060;-80
2021/12/24 02:55:01;;;;;;;11.77;7.03;;;6.30;99.90;;;;;;4988575;28;20068;-80
2021/12/24 02:57:28;;;;;;;10.48;7.10;;;6.30;99.90;;;;;;4984903;28;20393;-81
2021/12/24 03:00:00;;;;;;;13.32;8.52;;;6.30;99.90;;;;;;4990410;28;20057;-81
2021/12/24 03:02:27;;;;;;;12.27;7.53;;;6.30;99.90;;;;;;4987621;28;20046;-80
2021/12/24 03:04:53;;;;;;;9.43;7.25;;;6.30;99.90;;;;;;4992378;28;20049;-81
2021/12/24 03:07:20;;;;;;;12.55;6.72;;;6.30;99.90;;;;;;4992038;28;20054;-80
2021/12/24 03:09:46;;;;;;;11.38;7.47;;;6.30;99.90;;;;;;4995343;28;20046;-80
2021/12/24 03:12:13;;;;;;;12.18;7.22;;;6.30;99.90;;;;;;4986772;28;20612;-80
2021/12/24 03:14:39;;;;;;;9.88;6.53;;;6.40;99.90;;;;;;4991733;28;20054;-81
2021/12/24 03:17:10;;;;;;;15.00;7.80;;;6.30;99.90;;;;;;4991265;28;20137;-81
2021/12/24 03:19:37;;;;;;;11.77;7.13;;;6.30;99.90;;;;;;4992120;28;20603;-81
2021/12/24 03:22:13;;;;;;;12.85;7.53;;;6.30;99.90;;;;;;4992644;28;20049;-81
2021/12/24 03:24:39;;;;;;;13.07;7.47;;;6.40;99.90;;;;;;4984968;28;20136;-80
2021/12/24 03:27:06;;;;;;;15.23;8.13;;;6.30;99.90;;;;;;4990392;28;20041;-81
2021/12/24 03:29:32;;;;;;;9.65;6.32;;;6.40;99.90;;;;;;4991208;28;20050;-80
2021/12/24 03:31:59;;;;;;;9.68;6.22;;;6.30;99.90;;;;;;4991619;28;20054;-80
2021/12/24 03:34:26;;;;;;;9.38;7.03;;;6.40;99.90;;;;;;4989140;28;20507;-80
2021/12/24 03:36:52;;;;;;;13.60;8.35;;;6.40;99.90;;;;;;4990549;28;20050;-81
2021/12/24 03:39:19;;;;;;;13.27;7.28;;;6.40;99.90;;;;;;4986125;28;20071;-80
2021/12/24 03:41:45;;;;;;;13.32;7.47;;;6.40;99.90;;;;;;4993276;28;20061;-81
2021/12/24 03:44:13;;;;;;;12.02;7.60;;;6.40;99.90;;;;;;4983265;28;20049;-80
2021/12/24 03:46:49;;;;;;;13.77;7.80;;;6.50;99.90;;;;;;5010395;28;20108;-80
2021/12/24 03:49:20;;;;;;;12.43;8.30;;;6.50;99.90;;;;;;4992237;28;20046;-80
2021/12/24 03:51:53;;;;;;;12.00;7.25;;;6.50;99.90;;;;;;4986944;28;20421;-79
2021/12/24 03:57:04;;;;;;;20.13;8.70;;;6.50;99.90;;;;;;4992234;28;20046;-80
2021/12/24 03:59:31;;;;;;;17.40;9.63;;;6.50;99.90;;;;;;5008386;28;20042;-81
2021/12/24 04:01:57;;;;;;;15.27;8.52;;;6.60;99.90;;;;;;4991292;28;20054;-81
2021/12/24 04:04:24;;;;;;;21.45;9.05;;;6.60;99.90;;;;;;4991504;28;20050;-80
2021/12/24 04:06:50;;;;;;;16.15;8.98;;;6.50;99.90;;;;;;4980768;28;20054;-79
2021/12/24 04:09:17;;;;;;;17.75;8.52;;;6.60;99.90;;;;;;5007859;28;20049;-80
2021/12/24 04:11:44;;;;;;;23.55;9.95;;;6.60;99.90;;;;;;5000935;28;20550;-80
2021/12/24 04:14:10;;;;;;;21.42;10.23;;;6.60;99.90;;;;;;4990936;28;20042;-80
2021/12/24 04:16:37;;;;;;;20.45;9.05;;;6.70;99.90;;;;;;4981681;28;20046;-79
2021/12/24 04:19:21;;;;;;;21.35;8.85;;;6.70;99.90;;;;;;4988879;28;20534;-79
2021/12/24 04:27:19;;;;;;;25.83;10.88;;;6.80;99.90;;;;;;4983079;28;20051;-81
2021/12/24 04:29:45;;;;;;;35.25;12.07;;;6.80;99.90;;;;;;4992496;28;20444;-80
2021/12/24 04:32:16;;;;;;;36.65;11.85;;;6.80;99.90;;;;;;4992128;28;20141;-81
2021/12/24 04:34:45;;;;;;;36.00;12.30;;;6.80;99.90;;;;;;4988170;28;20054;-80
2021/12/24 04:51:16;;;;;;;32.28;13.55;;;7.00;99.90;;;;;;4983328;28;20081;-81
2021/12/24 05:02:05;;;;;;;32.80;14.88;;;7.20;99.90;;;;;;4987152;28;20409;-79
2021/12/24 05:04:35;;;;;;;38.13;14.65;;;7.30;99.90;;;;;;4984310;28;20307;-80
2021/12/24 05:07:10;;;;;;;37.05;13.75;;;7.40;99.90;;;;;;4990238;28;20387;-80
2021/12/24 05:09:39;;;;;;;33.17;13.52;;;7.30;99.90;;;;;;4989599;28;20046;-80
2021/12/24 05:12:06;;;;;;;37.08;14.45;;;7.40;99.90;;;;;;4986404;28;20049;-79
2021/12/24 05:14:32;;;;;;;32.28;15.25;;;7.50;99.90;;;;;;4983163;28;20508;-78
2021/12/24 05:17:17;;;;;;;30.80;13.15;;;7.50;99.90;;;;;;4983361;28;20068;-80
2021/12/24 05:22:30;;;;;;;34.67;13.68;;;7.50;99.90;;;;;;4989799;28;20050;-81
2021/12/24 05:24:57;;;;;;;29.58;14.13;;;7.50;99.90;;;;;;4990292;28;20050;-80
2021/12/24 05:27:23;;;;;;;33.47;14.85;;;7.60;99.90;;;;;;4990836;28;20049;-80
2021/12/24 05:29:50;;;;;;;28.95;14.25;;;7.70;99.90;;;;;;4991352;28;20050;-80
2021/12/24 05:32:16;;;;;;;28.75;15.20;;;7.80;99.90;;;;;;5001504;28;20060;-79
2021/12/24 05:34:43;;;;;;;31.55;15.18;;;7.80;99.90;;;;;;4988115;28;20068;-80
2021/12/24 05:37:10;;;;;;;33.55;16.48;;;7.80;99.90;;;;;;5011474;28;20057;-80
2021/12/24 05:39:36;;;;;;;31.38;14.25;;;7.90;99.90;;;;;;5012523;28;20053;-80
2021/12/24 05:42:03;;;;;;;32.80;16.77;;;7.80;99.90;;;;;;5011201;28;20064;-80
2021/12/24 05:44:31;;;;;;;37.40;15.25;;;7.90;99.90;;;;;;4993495;28;20052;-80
2021/12/24 05:46:58;;;;;;;28.98;16.00;;;7.90;99.90;;;;;;4989750;28;20085;-80
2021/12/24 05:49:24;;;;;;;39.38;17.00;;;7.90;99.90;;;;;;4992858;28;20058;-80
2021/12/24 05:51:51;;;;;;;34.38;17.05;;;7.80;99.90;;;;;;4989792;28;20058;-80
2021/12/24 05:54:17;;;;;;;41.13;17.70;;;7.80;99.90;;;;;;4992226;28;20050;-80
2021/12/24 05:56:44;;;;;;;32.25;17.30;;;7.80;99.90;;;;;;4991189;28;20393;-80
2021/12/24 05:59:11;;;;;;;36.15;17.38;;;7.80;99.90;;;;;;4985214;28;20096;-79
2021/12/24 06:01:37;;;;;;;32.90;17.67;;;7.90;99.90;;;;;;5000463;28;20049;-80
2021/12/24 06:04:04;;;;;;;44.75;20.15;;;7.90;99.90;;;;;;5015883;28;20049;-80
2021/12/24 06:06:30;;;;;;;57.47;22.40;;;7.90;99.90;;;;;;4993902;28;20061;-80
2021/12/24 06:08:57;;;;;;;43.88;21.45;;;7.90;99.90;;;;;;5004684;28;20507;-80
2021/12/24 06:11:24;;;;;;;38.50;21.08;;;8.00;99.90;;;;;;4989452;28;20086;-80
2021/12/24 06:13:53;;;;;;;41.92;21.10;;;8.00;99.90;;;;;;4985196;28;20072;-80
2021/12/24 06:16:20;;;;;;;48.83;21.08;;;8.00;99.90;;;;;;4987194;28;20053;-80
2021/12/24 06:18:46;;;;;;;35.50;21.20;;;8.00;99.90;;;;;;4983572;28;20042;-80
2021/12/24 06:21:13;;;;;;;49.05;23.02;;;8.00;99.90;;;;;;4994945;28;20058;-80
2021/12/24 06:23:40;;;;;;;53.15;24.15;;;8.00;99.90;;;;;;5002978;28;20486;-80
2021/12/24 06:26:06;;;;;;;51.47;22.90;;;8.00;99.90;;;;;;4991175;28;20042;-79
2021/12/24 06:28:33;;;;;;;47.30;24.05;;;8.10;99.90;;;;;;4992968;28;20054;-80
2021/12/24 06:30:59;;;;;;;45.92;23.10;;;8.00;99.90;;;;;;5010995;28;20077;-79
2021/12/24 06:33:26;;;;;;;44.40;21.40;;;8.10;99.90;;;;;;4991887;28;20062;-80
2021/12/24 06:35:54;;;;;;;47.00;22.70;;;8.00;99.90;;;;;;4990408;28;20069;-80
2021/12/24 06:38:20;;;;;;;48.28;21.42;;;8.00;99.90;;;;;;4984742;28;20129;-80
2021/12/24 06:40:47;;;;;;;47.25;20.10;;;8.10;99.90;;;;;;5018757;28;20125;-80
2021/12/24 06:43:13;;;;;;;47.40;21.10;;;8.10;99.90;;;;;;4994861;28;20050;-80
2021/12/24 06:45:40;;;;;;;44.45;19.10;;;8.10;99.90;;;;;;4988804;28;20049;-79
2021/12/24 06:48:06;;;;;;;34.42;17.95;;;8.10;99.90;;;;;;5004564;28;20042;-80
2021/12/24 06:50:33;;;;;;;50.55;18.77;;;8.10;99.90;;;;;;4995370;28;20104;-80
2021/12/24 06:52:59;;;;;;;36.78;16.92;;;8.10;99.90;;;;;;4982265;28;20054;-80
2021/12/24 06:55:26;;;;;;;40.88;16.33;;;8.10;99.90;;;;;;4990717;28;20121;-80
2021/12/24 06:57:53;;;;;;;32.92;16.45;;;8.10;99.90;;;;;;4989139;28;20061;-80
2021/12/24 07:00:19;;;;;;;33.10;14.85;;;8.10;99.90;;;;;;4997040;28;20049;-80
2021/12/24 07:02:46;;;;;;;33.17;15.13;;;8.00;99.90;;;;;;4992441;28;20044;-79
2021/12/24 07:05:12;;;;;;;28.52;14.10;;;8.10;99.90;;;;;;4991534;28;20057;-80
2021/12/24 07:07:39;;;;;;;24.30;13.75;;;8.10;99.90;;;;;;4989668;28;20065;-80
2021/12/24 07:10:05;;;;;;;27.50;13.35;;;8.10;99.90;;;;;;4990044;28;20065;-79
2021/12/24 07:12:32;;;;;;;34.70;13.65;;;8.10;99.90;;;;;;4988382;28;20057;-79
2021/12/24 07:14:58;;;;;;;26.80;11.30;;;8.20;99.90;;;;;;4996240;28;20049;-81
2021/12/24 07:17:25;;;;;;;30.40;12.13;;;8.10;99.90;;;;;;4990135;28;20058;-81
2021/12/24 07:19:52;;;;;;;27.35;12.38;;;8.10;99.90;;;;;;5009053;28;20060;-81
2021/12/24 07:22:18;;;;;;;24.25;11.32;;;8.10;99.90;;;;;;4991911;28;20077;-80
2021/12/24 07:24:46;;;;;;;21.33;11.18;;;8.10;99.90;;;;;;4993740;28;20151;-81
2021/12/24 07:27:12;;;;;;;36.85;12.50;;;8.10;99.90;;;;;;4990952;28;20412;-81
2021/12/24 07:29:39;;;;;;;18.65;11.25;;;8.00;99.90;;;;;;4990590;28;20636;-81
2021/12/24 07:32:05;;;;;;;26.05;9.43;;;8.00;99.90;;;;;;5009376;28;20072;-81
2021/12/24 07:34:32;;;;;;;32.38;12.20;;;8.10;99.90;;;;;;5006796;28;20050;-81
2021/12/24 07:36:59;;;;;;;23.48;8.52;;;8.20;99.90;;;;;;4991665;28;20049;-81
2021/12/24 07:39:25;;;;;;;9.93;7.18;;;7.90;99.90;;;;;;4991528;28;20049;-81
2021/12/24 07:41:52;;;;;;;9.48;6.15;;;7.90;99.90;;;;;;5008791;28;20054;-81
2021/12/24 07:44:19;;;;;;;8.70;5.35;;;8.00;99.90;;;;;;4991043;28;20057;-80
2021/12/24 07:46:49;;;;;;;5.72;4.43;;;8.00;99.90;;;;;;4990684;28;20042;-80
2021/12/24 07:49:30;;;;;;;12.20;5.50;;;7.80;99.90;;;;;;4991047;28;20054;-81
2021/12/24 07:52:01;;;;;;;9.63;5.53;;;7.70;99.90;;;;;;5010708;28;20053;-80
2021/12/24 07:54:27;;;;;;;8.27;5.45;;;7.50;99.90;;;;;;4990809;28;20481;-80
2021/12/24 07:56:54;;;;;;;14.10;5.93;;;7.30;99.90;;;;;;4991212;28;20062;-80
2021/12/24 07:59:20;;;;;;;4.32;3.63;;;7.20;99.90;;;;;;5009386;28;20493;-81
2021/12/24 08:01:47;;;;;;;7.43;4.10;;;7.20;99.90;;;;;;5007617;28;20152;-80
2021/12/24 08:04:14;;;;;;;9.93;4.25;;;7.10;99.90;;;;;;4990469;28;20780;-80
2021/12/24 08:06:40;;;;;;;6.03;3.70;;;7.10;99.90;;;;;;5011162;28;20060;-80
2021/12/24 08:09:07;;;;;;;9.75;5.55;;;7.10;99.90;;;;;;4996851;28;20046;-80
2021/12/24 08:11:34;;;;;;;7.03;5.00;;;7.00;99.90;;;;;;4995407;28;20062;-81
2021/12/24 08:14:01;;;;;;;4.53;3.70;;;7.30;99.90;;;;;;4996090;28;20045;-80
2021/12/24 08:16:28;;;;;;;3.75;3.38;;;7.40;99.90;;;;;;4994791;28;20054;-80
2021/12/24 08:18:55;;;;;;;3.83;3.15;;;7.30;99.90;;;;;;4995193;28;20042;-80
2021/12/24 08:21:21;;;;;;;4.45;3.67;;;7.30;99.90;;;;;;4995425;28;20054;-80
2021/12/24 08:23:48;;;;;;;6.43;3.28;;;7.30;99.90;;;;;;4994710;28;20052;-81
2021/12/24 08:26:15;;;;;;;5.28;4.05;;;7.20;99.90;;;;;;5012325;28;20046;-81
2021/12/24 08:28:41;;;;;;;4.50;3.08;;;7.10;99.90;;;;;;4995516;28;20053;-81
2021/12/24 08:31:08;;;;;;;3.67;3.08;;;7.00;99.90;;;;;;5012963;28;20057;-81
2021/12/24 08:33:35;;;;;;;5.68;3.90;;;7.00;99.90;;;;;;4994510;28;20053;-81
2021/12/24 08:36:01;;;;;;;4.03;3.03;;;6.90;99.90;;;;;;5013221;28;20073;-80
2021/12/24 08:38:28;;;;;;;9.27;5.18;;;6.90;99.90;;;;;;4993418;28;20046;-80
2021/12/24 08:40:54;;;;;;;4.55;3.85;;;6.80;99.90;;;;;;4995332;28;20050;-81
2021/12/24 08:43:21;;;;;;;4.50;3.90;;;6.70;99.90;;;;;;4994529;28;20069;-81
2021/12/24 08:45:47;;;;;;;5.45;3.47;;;6.70;99.90;;;;;;4994975;28;20520;-81
2021/12/24 08:48:14;;;;;;;5.80;3.88;;;6.70;99.90;;;;;;4996244;28;20485;-81
2021/12/24 08:50:40;;;;;;;7.18;3.97;;;6.60;99.90;;;;;;5013070;28;20129;-80
2021/12/24 08:53:07;;;;;;;5.70;4.22;;;6.50;99.90;;;;;;4996686;28;20048;-80
2021/12/24 08:55:34;;;;;;;8.20;3.78;;;6.60;99.90;;;;;;4996007;28;20057;-81
2021/12/24 08:58:02;;;;;;;5.15;4.22;;;6.60;99.90;;;;;;5011044;28;20114;-80
2021/12/24 09:00:28;;;;;;;6.47;3.45;;;6.60;99.90;;;;;;5010838;28;20132;-80
2021/12/24 09:02:56;;;;;;;6.53;4.07;;;6.60;99.90;;;;;;5012356;28;20104;-81
2021/12/24 09:05:22;;;;;;;4.57;3.63;;;6.60;99.90;;;;;;4981358;28;20046;-81
2021/12/24 09:07:49;;;;;;;4.72;3.75;;;6.50;99.90;;;;;;4994327;28;20057;-80
2021/12/24 09:10:15;;;;;;;5.40;3.38;;;6.50;99.90;;;;;;4996030;28;20052;-80
2021/12/24 09:12:43;;;;;;;5.63;4.40;;;6.40;99.90;;;;;;4992471;28;20046;-80
2021/12/24 09:15:09;;;;;;;5.32;4.03;;;6.40;99.90;;;;;;4993515;28;20049;-80
2021/12/24 09:17:36;;;;;;;6.80;5.18;;;6.40;99.90;;;;;;4991914;28;20065;-80
2021/12/24 09:20:03;;;;;;;7.05;5.75;;;6.20;99.90;;;;;;4993704;28;20080;-80
2021/12/24 09:22:33;;;;;;;6.63;4.45;;;6.30;99.90;;;;;;4993051;28;20057;-80
2021/12/24 09:24:59;;;;;;;5.80;4.25;;;6.40;99.90;;;;;;5011125;28;20053;-81
2021/12/24 09:27:26;;;;;;;7.07;3.97;;;6.50;99.90;;;;;;4992892;28;20052;-80
2021/12/24 09:29:53;;;;;;;6.63;4.60;;;6.40;99.90;;;;;;4991672;28;20061;-80
2021/12/24 09:32:19;;;;;;;5.45;4.15;;;6.40;99.90;;;;;;4992626;28;20058;-81
2021/12/24 09:34:46;;;;;;;6.35;4.85;;;6.50;99.90;;;;;;4993231;28;20045;-80
2021/12/24 09:37:13;;;;;;;7.32;5.30;;;6.40;99.90;;;;;;4993758;28;20061;-80
2021/12/24 09:39:39;;;;;;;7.22;4.57;;;6.40;99.90;;;;;;4993653;28;20043;-80
2021/12/24 09:42:06;;;;;;;6.95;4.88;;;6.30;99.90;;;;;;4993710;28;20056;-80
2021/12/24 09:44:32;;;;;;;7.55;5.10;;;6.10;99.90;;;;;;4989223;28;20145;-81
2021/12/24 09:46:59;;;;;;;8.75;5.70;;;6.20;99.90;;;;;;4996534;28;20405;-80
2021/12/24 09:49:25;;;;;;;7.38;5.43;;;6.10;99.90;;;;;;4986766;28;20072;-81
2021/12/24 09:51:52;;;;;;;5.63;4.70;;;5.90;99.90;;;;;;4988645;28;20046;-80
2021/12/24 09:54:19;;;;;;;8.75;5.63;;;6.10;99.90;;;;;;4987976;28;20099;-81
2021/12/24 09:56:46;;;;;;;8.45;5.20;;;6.10;99.90;;;;;;4990610;28;20045;-81
2021/12/24 09:59:12;;;;;;;6.72;5.30;;;6.00;99.90;;;;;;5006272;28;20041;-80
2021/12/24 10:01:40;;;;;;;9.50;5.43;;;6.00;99.90;;;;;;4985951;28;20057;-80
2021/12/24 10:04:06;;;;;;;9.35;6.72;;;5.90;99.90;;;;;;5005809;28;20058;-80
2021/12/24 10:06:33;;;;;;;11.13;6.80;;;6.00;99.90;;;;;;4989111;28;20046;-80
2021/12/24 10:08:59;;;;;;;8.07;6.72;;;5.90;99.90;;;;;;4989454;28;20064;-79
2021/12/24 10:11:28;;;;;;;10.80;6.90;;;5.90;99.90;;;;;;4988462;28;20058;-80
2021/12/24 10:13:56;;;;;;;9.25;6.30;;;5.90;99.90;;;;;;4991085;28;20272;-81
2021/12/24 10:16:23;;;;;;;8.90;6.82;;;5.70;99.90;;;;;;4989035;28;20499;-80
2021/12/24 10:18:50;;;;;;;12.10;7.25;;;5.80;99.90;;;;;;4990214;28;20116;-81
2021/12/24 10:21:16;;;;;;;12.55;8.40;;;5.90;99.90;;;;;;4993203;28;20056;-80
2021/12/24 10:23:43;;;;;;;14.65;8.65;;;5.80;99.90;;;;;;4984951;28;20481;-80
2021/12/24 10:26:10;;;;;;;13.93;9.05;;;5.60;99.90;;;;;;4986661;28;20050;-79
2021/12/24 10:28:36;;;;;;;10.98;8.38;;;5.70;99.90;;;;;;5009006;28;20045;-80
2021/12/24 10:31:03;;;;;;;9.68;7.28;;;5.60;99.90;;;;;;4990749;28;20137;-80
2021/12/24 10:33:29;;;;;;;15.55;8.57;;;5.40;99.90;;;;;;4995547;28;20057;-80
2021/12/24 10:35:56;;;;;;;11.68;8.15;;;5.50;99.90;;;;;;4996385;28;20058;-80
2021/12/24 10:38:25;;;;;;;10.10;8.50;;;5.50;99.90;;;;;;4980453;28;20062;-80
2021/12/24 10:40:51;;;;;;;12.40;7.60;;;5.40;99.90;;;;;;4983649;28;20046;-80
2021/12/24 10:43:18;;;;;;;10.27;7.32;;;5.50;99.90;;;;;;4979118;28;20049;-80
2021/12/24 10:45:44;;;;;;;11.82;8.25;;;5.50;99.90;;;;;;4986211;28;20061;-80
2021/12/24 10:48:11;;;;;;;13.27;8.27;;;5.40;99.90;;;;;;4987588;28;20057;-81
2021/12/24 10:50:48;;;;;;;11.70;8.45;;;5.40;99.90;;;;;;5006359;28;20049;-80
2021/12/24 10:53:18;;;;;;;17.55;8.95;;;5.30;99.90;;;;;;5006142;28;20132;-81
2021/12/24 10:55:45;;;;;;;11.63;8.67;;;5.20;99.90;;;;;;4981950;28;20104;-80
2021/12/24 10:58:11;;;;;;;12.60;8.10;;;5.30;99.90;;;;;;4991070;28;20056;-80
2021/12/24 11:00:39;;;;;;;10.75;7.95;;;5.20;99.90;;;;;;4995656;28;20052;-80
2021/12/24 11:03:05;;;;;;;9.55;7.93;;;5.30;99.90;;;;;;4987955;28;20680;-80
2021/12/24 11:05:32;;;;;;;11.65;8.35;;;5.40;99.90;;;;;;4982045;28;20061;-81
2021/12/24 11:07:58;;;;;;;12.52;8.95;;;5.40;99.90;;;;;;4987910;28;20145;-80
2021/12/24 11:10:25;;;;;;;11.23;7.18;;;5.30;99.90;;;;;;4989635;28;20050;-80
2021/12/24 11:12:54;;;;;;;11.75;7.85;;;5.30;99.90;;;;;;4986828;28;20046;-80
2021/12/24 11:15:20;;;;;;;9.32;7.50;;;5.30;99.90;;;;;;5002795;28;20564;-80
2021/12/24 11:17:47;;;;;;;10.23;7.47;;;5.30;99.90;;;;;;4977525;28;20457;-80
2021/12/24 11:20:13;;;;;;;13.00;8.60;;;5.30;99.90;;;;;;5003518;28;20056;-80
2021/12/24 11:22:40;;;;;;;20.27;9.45;;;5.10;99.90;;;;;;4978276;28;20508;-79
2021/12/24 11:25:06;;;;;;;13.68;9.52;;;5.00;99.90;;;;;;4978091;28;20050;-80
2021/12/24 11:27:33;;;;;;;10.80;7.78;;;5.00;99.90;;;;;;5007144;28;20064;-80
2021/12/24 11:29:59;;;;;;;14.20;7.78;;;4.90;99.90;;;;;;4987364;28;20061;-80
2021/12/24 11:32:26;;;;;;;16.83;10.02;;;4.80;99.90;;;;;;4986284;28;20058;-80
2021/12/24 11:34:53;;;;;;;21.05;11.93;;;5.00;99.90;;;;;;4990331;28;20049;-80
2021/12/24 11:37:19;;;;;;;11.90;7.78;;;5.00;99.90;;;;;;4990475;28;20079;-80
2021/12/24 11:39:46;;;;;;;9.48;7.40;;;5.10;99.90;;;;;;4987977;28;20053;-79
2021/12/24 11:42:13;;;;;;;13.55;7.97;;;5.00;99.90;;;;;;4985745;28;20114;-80
2021/12/24 11:44:39;;;;;;;12.80;9.25;;;5.10;99.90;;;;;;4991102;28;20120;-80
2021/12/24 11:47:06;;;;;;;11.05;7.82;;;5.00;99.90;;;;;;4988529;28;20415;-80
2021/12/24 11:49:32;;;;;;;10.82;7.70;;;5.00;99.90;;;;;;4987607;28;20065;-79
2021/12/24 11:51:59;;;;;;;11.07;7.10;;;5.00;99.90;;;;;;4987865;28;20051;-78
2021/12/24 11:54:25;;;;;;;9.52;7.00;;;5.00;99.90;;;;;;4987428;28;20611;-80
2021/12/24 11:56:54;;;;;;;8.43;6.65;;;4.90;99.90;;;;;;4987172;28;20477;-79
2021/12/24 11:59:20;;;;;;;11.35;6.78;;;4.90;99.90;;;;;;4989071;28;20609;-80
2021/12/24 12:01:47;;;;;;;9.52;6.30;;;4.90;99.90;;;;;;4989673;28;20054;-79
2021/12/24 12:04:14;;;;;;;8.93;6.03;;;4.90;99.90;;;;;;4987739;28;20127;-79
2021/12/24 12:06:40;;;;;;;8.73;6.40;;;4.90;99.90;;;;;;4989570;28;20505;-79
2021/12/24 12:09:08;;;;;;;8.60;6.50;;;4.90;99.90;;;;;;4990799;28;20038;-79
2021/12/24 12:11:35;;;;;;;10.55;7.03;;;4.90;99.90;;;;;;4989474;28;20126;-79
2021/12/24 12:14:02;;;;;;;8.30;7.28;;;4.90;99.90;;;;;;4987751;28;20053;-79
2021/12/24 12:16:28;;;;;;;9.43;6.38;;;4.80;99.90;;;;;;4987998;28;20081;-79
2021/12/24 12:19:04;;;;;;;7.32;5.07;;;4.80;99.90;;;;;;4988960;28;20069;-79
2021/12/24 12:21:41;;;;;;;7.82;5.70;;;4.80;99.90;;;;;;4989479;28;20054;-79
2021/12/24 12:26:57;;;;;;;7.40;5.15;;;4.90;99.90;;;;;;4983420;28;20049;-79
2021/12/24 12:29:24;;;;;;;6.68;4.65;;;4.80;99.90;;;;;;4991454;28;20050;-79
2021/12/24 12:31:50;;;;;;;8.93;5.30;;;4.80;99.90;;;;;;4988441;28;20050;-80
2021/12/24 12:34:17;;;;;;;8.85;5.40;;;4.90;99.90;;;;;;4990328;28;20057;-78
2021/12/24 12:36:44;;;;;;;7.75;6.57;;;4.80;99.90;;;;;;4990495;28;20046;-79
2021/12/24 12:39:10;;;;;;;7.93;5.05;;;4.70;99.90;;;;;;4990966;28;20094;-80
2021/12/24 12:41:39;;;;;;;8.35;6.05;;;4.70;99.90;;;;;;4988799;28;20066;-81
2021/12/24 12:44:06;;;;;;;8.75;5.60;;;4.70;99.90;;;;;;4996415;28;20058;-80
2021/12/24 12:46:33;;;;;;;8.88;6.05;;;4.70;99.90;;;;;;4987383;28;20054;-80
2021/12/24 12:49:00;;;;;;;9.43;6.18;;;4.70;99.90;;;;;;4990868;28;20552;-80
2021/12/24 12:51:27;;;;;;;11.32;6.40;;;4.70;99.90;;;;;;4996525;28;20108;-79
2021/12/24 12:53:55;;;;;;;10.07;6.50;;;4.70;99.90;;;;;;5005128;28;20050;-79
2021/12/24 12:56:22;;;;;;;16.58;5.93;;;4.70;99.90;;;;;;4994533;28;20137;-79
2021/12/24 12:58:49;;;;;;;8.85;6.97;;;4.60;99.90;;;;;;4988617;28;20105;-79
2021/12/24 13:01:17;;;;;;;8.75;6.63;;;4.70;99.90;;;;;;4980536;28;20480;-79
2021/12/24 13:03:44;;;;;;;10.65;7.70;;;4.60;99.90;;;;;;4982451;28;20066;-79
2021/12/24 13:06:10;;;;;;;14.25;7.65;;;4.60;99.90;;;;;;4992991;28;20052;-79
2021/12/24 13:08:37;;;;;;;11.82;6.88;;;4.60;99.90;;;;;;4985419;28;20054;-80
2021/12/24 13:11:04;;;;;;;12.38;6.72;;;4.60;99.90;;;;;;4990943;28;20042;-79
2021/12/24 13:13:30;;;;;;;7.15;5.47;;;4.70;99.90;;;;;;4986431;28;20046;-79
2021/12/24 13:15:57;;;;;;;8.18;6.80;;;4.70;99.90;;;;;;4989432;28;20500;-79
2021/12/24 13:18:27;;;;;;;8.25;6.50;;;4.70;99.90;;;;;;4990570;28;20069;-79
2021/12/24 13:23:37;;;;;;;9.30;5.53;;;4.70;99.90;;;;;;4993212;28;20058;-80
2021/12/24 13:26:03;;;;;;;10.93;6.53;;;4.80;99.90;;;;;;4988035;28;20050;-80
2021/12/24 13:28:30;;;;;;;7.00;6.03;;;4.80;99.90;;;;;;4994462;28;20062;-79
2021/12/24 13:30:56;;;;;;;11.80;6.82;;;4.80;99.90;;;;;;4992816;28;20046;-80
2021/12/24 13:33:23;;;;;;;9.07;6.18;;;4.80;99.90;;;;;;4997063;28;20053;-80
2021/12/24 13:35:49;;;;;;;9.93;6.22;;;4.80;99.90;;;;;;4995699;28;20057;-81
2021/12/24 13:38:16;;;;;;;10.82;6.80;;;4.80;99.90;;;;;;5005230;28;20050;-79
2021/12/24 13:40:43;;;;;;;8.65;6.40;;;4.90;99.90;;;;;;5012109;28;20101;-79
2021/12/24 13:43:12;;;;;;;8.88;5.93;;;4.80;99.90;;;;;;4994711;28;20042;-79
2021/12/24 13:45:38;;;;;;;8.45;5.85;;;4.90;99.90;;;;;;4996705;28;20054;-80
2021/12/24 13:48:08;;;;;;;9.13;6.57;;;4.90;99.90;;;;;;5012235;28;20050;-79
2021/12/24 13:55:53;;;;;;;10.80;7.93;;;4.80;99.90;;;;;;4993780;28;20104;-79
2021/12/24 13:58:20;;;;;;;9.43;6.90;;;4.90;99.90;;;;;;4992733;28;20749;-80
2021/12/24 14:00:46;;;;;;;12.65;6.78;;;4.90;99.90;;;;;;5011436;28;20045;-79
2021/12/24 14:03:13;;;;;;;11.00;6.45;;;4.90;99.90;;;;;;5002583;28;20060;-79
2021/12/24 14:05:39;;;;;;;9.40;6.70;;;4.90;99.90;;;;;;4994393;28;20049;-79
2021/12/24 14:08:06;;;;;;;8.07;5.80;;;4.90;99.90;;;;;;4993169;28;20057;-78
2021/12/24 14:10:33;;;;;;;11.70;5.70;;;4.90;99.90;;;;;;5007671;28;20486;-80
2021/12/24 14:13:06;;;;;;;7.68;5.85;;;4.90;99.90;;;;;;4991070;28;20099;-80
2021/12/24 14:15:42;;;;;;;7.90;6.18;;;5.00;99.90;;;;;;4991987;28;20108;-80